Time;durP1;ratioP1;P1;durP2;ratioP2;P2;SDS_P1;SDS_P2;PMS_P1;PMS_P2;Temp;Humidity;BMP_temperature;BMP_pressure;BME280_temperature;BME280_humidity;BME280_pressure;Samples;Min_cycle;Max_cycle;Signal;HPM_P1;HPM_P2
2021/08/26 00:01:18;;;;;;;22.03;4.43;;;14.50;99.90;;;;;;5117642;27;20204;-50
2021/08/26 00:06:30;;;;;;;30.27;4.40;;;14.50;99.90;;;;;;5119457;27;20970;-46
2021/08/26 00:08:57;;;;;;;24.23;4.73;;;14.40;99.90;;;;;;5125632;27;20189;-52
2021/08/26 00:11:25;;;;;;;13.50;4.30;;;14.50;99.90;;;;;;5119403;27;20300;-45
2021/08/26 00:13:52;;;;;;;17.10;4.47;;;14.50;99.90;;;;;;5107602;27;20220;-43
2021/08/26 00:16:20;;;;;;;16.27;4.07;;;14.40;99.90;;;;;;5118768;27;20754;-44
2021/08/26 00:18:47;;;;;;;19.93;3.77;;;14.40;99.90;;;;;;5126443;27;20189;-46
2021/08/26 00:21:14;;;;;;;16.80;4.07;;;14.40;99.90;;;;;;5110805;27;20229;-50
2021/08/26 00:23:42;;;;;;;20.93;4.43;;;14.40;99.90;;;;;;5104730;27;20229;-42
2021/08/26 00:26:09;;;;;;;16.23;3.70;;;14.40;99.90;;;;;;5119256;27;20703;-51
2021/08/26 00:28:36;;;;;;;18.67;4.23;;;14.40;99.90;;;;;;5122048;27;20569;-44
2021/08/26 00:31:03;;;;;;;21.20;4.37;;;14.40;99.90;;;;;;5110881;27;20290;-47
2021/08/26 00:33:29;;;;;;;24.73;4.23;;;14.40;99.90;;;;;;5104346;27;20479;-45
2021/08/26 00:35:57;;;;;;;19.13;3.73;;;14.40;99.90;;;;;;5100046;27;20207;-48
2021/08/26 00:38:24;;;;;;;17.90;5.13;;;14.40;99.90;;;;;;5120590;27;20185;-45
2021/08/26 00:40:52;;;;;;;18.87;4.30;;;14.40;99.90;;;;;;5135121;27;20659;-44
2021/08/26 00:43:19;;;;;;;27.00;4.77;;;14.40;99.90;;;;;;5101371;28;20702;-44
2021/08/26 00:45:49;;;;;;;18.37;4.63;;;14.40;99.90;;;;;;5105531;28;20189;-44
2021/08/26 00:48:15;;;;;;;17.13;4.20;;;14.30;99.90;;;;;;5122274;27;20196;-47
2021/08/26 00:50:42;;;;;;;18.33;4.50;;;14.30;99.90;;;;;;5138468;27;20207;-44
2021/08/26 00:53:09;;;;;;;19.20;4.03;;;14.40;99.90;;;;;;5107161;27;20701;-48
2021/08/26 00:55:36;;;;;;;21.57;4.93;;;14.30;99.90;;;;;;5110704;27;20196;-43
2021/08/26 00:58:04;;;;;;;14.90;4.60;;;14.30;99.90;;;;;;5124450;27;20567;-50
2021/08/26 01:00:31;;;;;;;20.60;4.23;;;14.30;99.90;;;;;;5105342;27;20189;-44
2021/08/26 01:03:07;;;;;;;18.90;4.57;;;14.30;99.90;;;;;;5112038;27;20226;-45
2021/08/26 01:05:41;;;;;;;14.47;4.63;;;14.30;99.90;;;;;;5118884;27;20189;-51
2021/08/26 01:08:12;;;;;;;24.60;4.70;;;14.30;99.90;;;;;;5100873;27;20213;-46
2021/08/26 01:10:42;;;;;;;21.97;4.90;;;14.30;99.90;;;;;;5122348;27;20856;-50
2021/08/26 01:13:11;;;;;;;19.07;4.57;;;14.20;99.90;;;;;;5122766;27;20207;-47
2021/08/26 01:15:38;;;;;;;15.47;4.30;;;14.20;99.90;;;;;;5112688;27;20201;-46
2021/08/26 01:18:05;;;;;;;27.23;4.93;;;14.20;99.90;;;;;;5135804;27;20200;-48
2021/08/26 01:20:32;;;;;;;29.07;4.83;;;14.30;99.90;;;;;;5123972;27;20197;-48
2021/08/26 01:22:58;;;;;;;17.73;4.73;;;14.30;99.90;;;;;;5108870;27;20193;-45
2021/08/26 01:25:28;;;;;;;17.47;4.50;;;14.20;99.90;;;;;;5116229;27;20193;-46
2021/08/26 01:27:59;;;;;;;17.50;4.67;;;14.20;99.90;;;;;;5126228;27;20654;-47
2021/08/26 01:30:29;;;;;;;21.03;4.57;;;14.20;99.90;;;;;;5105731;27;20182;-48
2021/08/26 01:33:00;;;;;;;25.00;4.97;;;14.20;99.90;;;;;;5123013;27;20244;-45
2021/08/26 01:35:26;;;;;;;19.97;4.63;;;14.20;99.90;;;;;;5121376;27;20192;-47
2021/08/26 01:37:53;;;;;;;30.17;5.07;;;14.20;99.90;;;;;;5114941;27;20196;-50
2021/08/26 01:40:32;;;;;;;28.30;5.20;;;14.20;99.90;;;;;;5107032;27;20205;-47
2021/08/26 01:43:01;;;;;;;18.93;4.57;;;14.20;99.90;;;;;;5121958;27;20196;-44
2021/08/26 01:45:28;;;;;;;22.17;4.00;;;14.10;99.90;;;;;;5106372;27;20191;-50
2021/08/26 01:47:55;;;;;;;21.33;4.90;;;14.10;99.90;;;;;;5120054;27;20203;-43
2021/08/26 01:50:22;;;;;;;20.43;4.87;;;14.10;99.90;;;;;;5119285;27;20190;-46
2021/08/26 01:52:48;;;;;;;23.67;6.03;;;14.10;99.90;;;;;;5107096;27;20213;-47
2021/08/26 01:55:15;;;;;;;19.70;5.13;;;14.10;99.90;;;;;;5091318;27;20208;-43
2021/08/26 01:57:41;;;;;;;20.97;4.47;;;14.10;99.90;;;;;;5126383;27;20189;-46
2021/08/26 02:00:11;;;;;;;27.60;4.70;;;14.10;99.90;;;;;;5122913;27;20185;-43
2021/08/26 02:02:37;;;;;;;25.40;4.70;;;14.10;99.90;;;;;;5121485;27;20224;-44
2021/08/26 02:05:05;;;;;;;23.90;4.93;;;14.10;99.90;;;;;;5122576;27;20195;-43
2021/08/26 02:07:31;;;;;;;25.40;4.60;;;14.10;99.90;;;;;;5123260;27;20991;-46
2021/08/26 02:09:58;;;;;;;21.00;4.27;;;14.10;99.90;;;;;;5120208;27;20539;-43
2021/08/26 02:12:25;;;;;;;23.73;4.90;;;14.00;99.90;;;;;;5114324;27;20956;-45
2021/08/26 02:14:51;;;;;;;24.53;4.53;;;14.00;99.90;;;;;;5120617;27;20216;-45
2021/08/26 02:17:19;;;;;;;18.60;4.80;;;14.00;99.90;;;;;;5114188;27;20878;-47
2021/08/26 02:19:46;;;;;;;26.10;5.47;;;14.00;99.90;;;;;;5105195;28;20207;-47
2021/08/26 02:22:13;;;;;;;26.33;4.97;;;14.00;99.90;;;;;;5110904;27;20231;-42
2021/08/26 02:24:39;;;;;;;24.37;5.23;;;14.00;99.90;;;;;;5125729;27;20276;-46
2021/08/26 02:27:06;;;;;;;25.77;4.47;;;14.00;99.90;;;;;;5108360;27;20213;-44
2021/08/26 02:29:33;;;;;;;18.87;4.53;;;14.00;99.90;;;;;;5124362;27;20185;-49
2021/08/26 02:31:59;;;;;;;27.97;5.00;;;14.00;99.90;;;;;;5114744;27;20225;-46
2021/08/26 02:34:27;;;;;;;23.87;4.97;;;14.00;99.90;;;;;;5116337;27;20483;-46
2021/08/26 02:36:54;;;;;;;21.87;4.80;;;14.00;99.90;;;;;;5123180;27;20197;-46
2021/08/26 02:39:20;;;;;;;23.17;4.30;;;14.00;99.90;;;;;;5101412;27;20298;-47
2021/08/26 02:41:47;;;;;;;24.00;4.97;;;14.00;99.90;;;;;;5102156;27;20220;-50
2021/08/26 02:44:13;;;;;;;24.77;4.60;;;14.00;99.90;;;;;;5120325;27;20188;-45
2021/08/26 02:46:40;;;;;;;30.70;5.87;;;14.00;99.90;;;;;;5117784;28;20197;-46
2021/08/26 02:49:07;;;;;;;14.77;4.57;;;14.00;99.90;;;;;;5113061;27;20199;-45
2021/08/26 02:51:35;;;;;;;24.57;5.00;;;13.90;99.90;;;;;;5112562;27;20239;-53
2021/08/26 02:54:01;;;;;;;25.97;4.30;;;13.90;99.90;;;;;;5105443;28;20220;-45
2021/08/26 02:56:28;;;;;;;19.40;4.63;;;13.90;99.90;;;;;;5099756;27;20209;-49
2021/08/26 02:58:55;;;;;;;17.77;4.60;;;13.80;99.90;;;;;;5122613;27;20200;-44
2021/08/26 03:01:21;;;;;;;22.67;4.40;;;13.80;99.90;;;;;;5111574;27;20851;-48
2021/08/26 03:03:48;;;;;;;22.70;5.67;;;13.80;99.90;;;;;;5112757;27;20519;-45
2021/08/26 03:06:15;;;;;;;17.57;4.37;;;13.80;99.90;;;;;;5113788;27;20200;-46
2021/08/26 03:08:42;;;;;;;23.60;5.33;;;13.80;99.90;;;;;;5104482;28;20208;-51
2021/08/26 03:11:10;;;;;;;20.23;4.50;;;13.70;99.90;;;;;;5105408;27;20236;-45
2021/08/26 03:13:37;;;;;;;18.00;4.37;;;13.70;99.90;;;;;;5124973;27;20221;-49
2021/08/26 03:16:04;;;;;;;23.93;4.70;;;13.70;99.90;;;;;;5103665;28;20578;-44
2021/08/26 03:18:31;;;;;;;17.80;4.60;;;13.70;99.90;;;;;;5104002;28;20193;-47
2021/08/26 03:20:57;;;;;;;25.60;4.77;;;13.70;99.90;;;;;;5122690;27;20598;-45
2021/08/26 03:23:24;;;;;;;24.53;4.77;;;13.70;99.90;;;;;;5101257;28;20190;-48
2021/08/26 03:25:52;;;;;;;22.33;4.43;;;13.70;99.90;;;;;;5112031;28;20197;-49
2021/08/26 03:28:20;;;;;;;30.23;4.63;;;13.70;99.90;;;;;;5107766;27;20203;-45
2021/08/26 03:30:48;;;;;;;33.40;4.67;;;13.60;99.90;;;;;;5111787;27;20269;-46
2021/08/26 03:33:14;;;;;;;23.27;5.20;;;13.60;99.90;;;;;;5112610;27;20203;-47
2021/08/26 03:35:41;;;;;;;19.33;4.70;;;13.70;99.90;;;;;;5121539;27;20187;-48
2021/08/26 03:38:08;;;;;;;26.80;5.03;;;13.60;99.90;;;;;;5120192;27;20193;-43
2021/08/26 03:40:34;;;;;;;19.33;4.53;;;13.60;99.90;;;;;;5123592;27;20199;-48
2021/08/26 03:43:03;;;;;;;20.07;5.00;;;13.60;99.90;;;;;;5105909;27;20211;-45
2021/08/26 03:45:29;;;;;;;18.27;5.53;;;13.60;99.90;;;;;;5126432;27;20250;-43
2021/08/26 03:47:56;;;;;;;20.13;4.67;;;13.60;99.90;;;;;;5128814;27;20204;-44
2021/08/26 03:50:23;;;;;;;17.70;5.27;;;13.60;99.90;;;;;;5107408;27;20296;-49
2021/08/26 03:52:49;;;;;;;29.07;4.73;;;13.60;99.90;;;;;;5118914;27;20208;-50
2021/08/26 03:55:16;;;;;;;16.70;4.13;;;13.60;99.90;;;;;;5114651;27;20915;-49
2021/08/26 03:57:42;;;;;;;25.93;6.03;;;13.50;99.90;;;;;;5111650;27;20208;-51
2021/08/26 04:00:12;;;;;;;18.13;4.53;;;13.60;99.90;;;;;;5122828;27;20532;-46
2021/08/26 04:02:38;;;;;;;24.43;4.73;;;13.60;99.90;;;;;;5121692;27;20220;-47
2021/08/26 04:05:05;;;;;;;16.83;4.37;;;13.50;99.90;;;;;;5125841;27;20649;-44
2021/08/26 04:07:32;;;;;;;23.00;5.03;;;13.60;99.90;;;;;;5121244;27;20423;-48
2021/08/26 04:09:59;;;;;;;19.90;4.83;;;13.60;99.90;;;;;;5112796;27;20201;-45
2021/08/26 04:12:26;;;;;;;24.97;4.77;;;13.60;99.90;;;;;;5103054;27;20228;-51
2021/08/26 04:14:53;;;;;;;16.20;4.77;;;13.50;99.90;;;;;;5109311;27;20619;-48
2021/08/26 04:17:21;;;;;;;20.20;5.07;;;13.50;99.90;;;;;;5115760;27;20340;-47
2021/08/26 04:19:48;;;;;;;20.30;4.97;;;13.50;99.90;;;;;;5126575;27;20193;-50
2021/08/26 04:22:15;;;;;;;14.03;3.90;;;13.50;99.90;;;;;;5114418;27;20299;-46
2021/08/26 04:24:42;;;;;;;17.27;4.00;;;13.50;99.90;;;;;;5119238;27;20204;-46
2021/08/26 04:27:08;;;;;;;18.07;4.10;;;13.50;99.90;;;;;;5108209;27;20202;-43
2021/08/26 04:29:35;;;;;;;18.20;4.80;;;13.60;99.90;;;;;;5105818;27;20213;-46
2021/08/26 04:32:02;;;;;;;24.20;5.87;;;13.60;99.90;;;;;;5118641;27;20608;-47
2021/08/26 04:34:31;;;;;;;17.83;4.03;;;13.50;99.90;;;;;;5117909;27;20354;-53
2021/08/26 04:36:57;;;;;;;21.07;4.70;;;13.50;99.90;;;;;;5115538;27;20678;-46
2021/08/26 04:39:24;;;;;;;15.67;4.87;;;13.50;99.90;;;;;;5107120;27;20188;-49
2021/08/26 04:41:51;;;;;;;20.87;5.77;;;13.50;99.90;;;;;;5120275;27;20204;-51
2021/08/26 04:44:17;;;;;;;21.83;4.83;;;13.50;99.90;;;;;;5110706;27;20959;-49
2021/08/26 04:46:44;;;;;;;14.90;4.63;;;13.50;99.90;;;;;;5123926;27;20208;-54
2021/08/26 04:49:11;;;;;;;19.20;4.80;;;13.60;99.90;;;;;;5097771;27;20212;-50
2021/08/26 04:51:39;;;;;;;17.50;4.30;;;13.60;99.90;;;;;;5115838;27;20216;-44
2021/08/26 04:54:05;;;;;;;17.27;4.33;;;13.60;99.90;;;;;;5112616;27;20217;-48
2021/08/26 04:56:32;;;;;;;20.77;4.30;;;13.60;99.90;;;;;;5108619;27;20208;-45
2021/08/26 04:58:59;;;;;;;24.80;5.83;;;13.60;99.90;;;;;;5106513;27;20205;-46
2021/08/26 05:01:25;;;;;;;23.30;5.13;;;13.60;99.90;;;;;;5123132;27;20209;-44
2021/08/26 05:03:52;;;;;;;18.27;5.37;;;13.60;99.90;;;;;;5114598;27;20200;-46
2021/08/26 05:06:19;;;;;;;31.77;6.50;;;13.60;99.90;;;;;;5119126;27;20201;-49
2021/08/26 05:08:47;;;;;;;19.20;5.43;;;13.60;99.90;;;;;;5107082;27;20205;-44
2021/08/26 05:11:19;;;;;;;17.67;4.20;;;13.60;99.90;;;;;;5113856;27;20561;-48
2021/08/26 05:13:46;;;;;;;29.93;4.70;;;13.60;99.90;;;;;;5099512;27;20212;-47
2021/08/26 05:16:13;;;;;;;22.40;5.30;;;13.60;99.90;;;;;;5122074;27;20573;-48
2021/08/26 05:18:40;;;;;;;19.00;4.30;;;13.70;99.90;;;;;;5115884;27;20676;-42
2021/08/26 05:21:06;;;;;;;16.43;5.00;;;13.70;99.90;;;;;;5108126;27;20220;-47
2021/08/26 05:23:34;;;;;;;25.60;5.27;;;13.70;99.90;;;;;;5109665;27;20197;-42
2021/08/26 05:26:02;;;;;;;23.03;5.67;;;13.70;99.90;;;;;;5108225;27;20296;-49
2021/08/26 05:28:29;;;;;;;15.20;4.27;;;13.70;99.90;;;;;;5109214;27;20201;-45
2021/08/26 05:30:55;;;;;;;16.90;3.70;;;13.70;99.90;;;;;;5100829;27;21794;-47
2021/08/26 05:33:22;;;;;;;21.80;4.43;;;13.80;99.90;;;;;;5107697;27;20554;-44
2021/08/26 05:35:48;;;;;;;20.20;4.83;;;13.80;99.90;;;;;;5117810;27;20209;-46
2021/08/26 05:38:15;;;;;;;24.73;4.63;;;13.80;99.90;;;;;;5119925;27;20208;-48
2021/08/26 05:40:42;;;;;;;17.70;4.57;;;13.80;99.90;;;;;;5102049;27;20792;-51
2021/08/26 05:43:10;;;;;;;20.00;4.13;;;13.80;99.90;;;;;;5120251;27;20210;-50
2021/08/26 05:45:36;;;;;;;16.90;4.63;;;13.80;99.90;;;;;;5108282;27;20654;-44
2021/08/26 05:48:03;;;;;;;18.00;4.40;;;13.90;99.90;;;;;;5119332;27;20199;-48
2021/08/26 05:50:30;;;;;;;16.63;4.57;;;13.90;99.90;;;;;;5114464;27;20200;-45
2021/08/26 05:52:56;;;;;;;18.87;4.70;;;13.90;99.90;;;;;;5113755;27;20212;-47
2021/08/26 05:55:23;;;;;;;15.93;4.20;;;14.00;99.90;;;;;;5109191;27;20224;-53
2021/08/26 05:57:50;;;;;;;22.90;4.70;;;14.00;99.90;;;;;;5111539;27;20207;-43
2021/08/26 06:00:18;;;;;;;17.17;4.03;;;14.10;99.90;;;;;;5111519;27;20917;-46
2021/08/26 06:02:45;;;;;;;14.63;3.73;;;14.10;99.90;;;;;;5101128;27;20232;-43
2021/08/26 06:05:12;;;;;;;17.40;3.50;;;14.10;99.90;;;;;;5115314;27;20192;-45
2021/08/26 06:07:39;;;;;;;16.50;3.93;;;14.10;99.90;;;;;;5111594;27;20203;-44
2021/08/26 06:10:07;;;;;;;14.83;3.80;;;14.20;99.90;;;;;;5112096;27;20200;-47
2021/08/26 06:12:34;;;;;;;17.90;4.67;;;14.20;99.90;;;;;;5113523;27;20224;-45
2021/08/26 06:15:03;;;;;;;7.97;2.87;;;14.20;99.90;;;;;;5119231;27;20219;-47
2021/08/26 06:17:31;;;;;;;15.10;4.23;;;14.20;99.90;;;;;;5097516;27;20602;-46
2021/08/26 06:19:57;;;;;;;10.47;3.63;;;14.20;99.90;;;;;;5116781;27;20212;-43
2021/08/26 06:22:24;;;;;;;14.30;4.13;;;14.20;99.90;;;;;;5105956;27;20222;-47
2021/08/26 06:24:50;;;;;;;14.40;3.73;;;14.20;99.90;;;;;;5104119;27;20186;-43
2021/08/26 06:27:17;;;;;;;15.13;3.77;;;14.20;99.90;;;;;;5112505;27;20434;-48
2021/08/26 06:29:44;;;;;;;12.93;3.93;;;14.20;99.90;;;;;;5115502;27;20201;-43
2021/08/26 06:32:11;;;;;;;16.33;3.90;;;14.20;99.90;;;;;;5098042;27;20354;-48
2021/08/26 06:34:38;;;;;;;26.07;4.30;;;14.20;99.90;;;;;;5102601;27;20220;-44
2021/08/26 06:37:05;;;;;;;18.63;4.33;;;14.20;99.90;;;;;;5109464;28;20663;-44
2021/08/26 06:39:32;;;;;;;12.93;3.67;;;14.10;99.90;;;;;;5104916;27;20205;-45
2021/08/26 06:41:58;;;;;;;13.27;3.80;;;14.10;99.90;;;;;;5116421;27;20732;-45
2021/08/26 06:44:25;;;;;;;9.93;2.80;;;14.10;99.90;;;;;;5106551;27;20180;-47
2021/08/26 06:46:52;;;;;;;14.23;3.47;;;14.10;99.90;;;;;;5120562;27;20201;-45
2021/08/26 06:49:18;;;;;;;18.50;3.40;;;14.10;99.90;;;;;;5096109;27;20209;-44
2021/08/26 06:51:46;;;;;;;13.63;4.03;;;14.20;99.90;;;;;;5109980;27;20231;-42
2021/08/26 06:54:13;;;;;;;10.20;3.47;;;14.30;99.90;;;;;;5113604;27;20192;-46
2021/08/26 06:56:39;;;;;;;12.53;3.83;;;14.40;99.90;;;;;;5110022;27;20205;-49
2021/08/26 06:59:06;;;;;;;12.57;3.20;;;14.50;99.90;;;;;;5110113;27;20193;-47
2021/08/26 07:01:33;;;;;;;11.93;3.17;;;14.50;99.90;;;;;;5106072;28;20216;-50
2021/08/26 07:04:00;;;;;;;12.00;3.20;;;14.60;99.90;;;;;;5107856;27;20204;-42
2021/08/26 07:06:27;;;;;;;9.90;3.57;;;14.70;99.90;;;;;;5123358;27;20197;-50
2021/08/26 07:08:55;;;;;;;10.40;4.13;;;14.70;99.90;;;;;;5120453;27;20200;-42
2021/08/26 07:11:21;;;;;;;15.37;3.63;;;14.70;99.90;;;;;;5103407;27;22875;-44
2021/08/26 07:13:48;;;;;;;11.67;3.03;;;14.80;99.90;;;;;;5112931;27;20204;-44
2021/08/26 07:16:15;;;;;;;13.03;2.70;;;14.80;99.90;;;;;;5125094;27;20216;-46
2021/08/26 07:18:41;;;;;;;10.67;2.97;;;14.80;99.90;;;;;;5105141;27;20201;-45
2021/08/26 07:21:08;;;;;;;9.27;2.40;;;14.90;99.90;;;;;;5120765;27;20895;-44
2021/08/26 07:23:35;;;;;;;12.00;2.63;;;14.90;99.90;;;;;;5126398;27;20201;-44
2021/08/26 07:26:03;;;;;;;12.10;3.10;;;15.00;99.90;;;;;;5112360;27;20193;-41
2021/08/26 07:28:30;;;;;;;11.53;2.77;;;15.00;99.90;;;;;;5119788;27;20689;-44
2021/08/26 07:30:56;;;;;;;8.60;2.47;;;15.00;99.90;;;;;;5112905;27;20197;-45
2021/08/26 07:33:24;;;;;;;9.63;2.10;;;15.10;99.90;;;;;;5117065;27;20285;-47
2021/08/26 07:35:50;;;;;;;9.30;2.80;;;15.10;99.90;;;;;;5107444;27;20225;-42
2021/08/26 07:38:17;;;;;;;10.23;2.03;;;15.20;99.90;;;;;;5114696;27;20200;-50
2021/08/26 07:40:44;;;;;;;10.47;2.43;;;15.20;99.90;;;;;;5114362;27;20204;-45
2021/08/26 07:43:14;;;;;;;6.60;2.10;;;15.30;99.90;;;;;;5110956;27;20196;-45
2021/08/26 07:45:40;;;;;;;7.33;2.23;;;15.30;99.90;;;;;;5111701;27;20181;-44
2021/08/26 07:48:07;;;;;;;5.20;1.93;;;15.40;99.90;;;;;;5119716;27;20903;-46
2021/08/26 07:50:33;;;;;;;5.80;1.70;;;15.50;99.90;;;;;;5110193;27;20208;-45
2021/08/26 07:53:00;;;;;;;14.73;2.43;;;15.60;99.90;;;;;;5116009;27;20228;-48
2021/08/26 07:55:27;;;;;;;8.40;2.03;;;15.60;99.90;;;;;;5114435;27;20208;-45
2021/08/26 07:57:53;;;;;;;7.17;1.70;;;15.60;99.90;;;;;;5105475;27;20211;-48
2021/08/26 08:00:21;;;;;;;5.53;1.67;;;15.60;99.90;;;;;;5107248;27;20205;-44
2021/08/26 08:02:48;;;;;;;5.63;1.70;;;15.60;99.90;;;;;;5115736;27;20205;-50
2021/08/26 08:05:15;;;;;;;6.63;1.47;;;15.70;99.90;;;;;;5109745;27;20208;-46
2021/08/26 08:07:45;;;;;;;9.07;1.50;;;15.70;99.90;;;;;;5118084;27;20196;-50
2021/08/26 08:10:12;;;;;;;4.53;1.37;;;15.70;99.90;;;;;;5118422;27;20572;-45
2021/08/26 08:12:39;;;;;;;7.07;1.53;;;15.70;99.90;;;;;;5109203;27;21751;-50
2021/08/26 08:15:07;;;;;;;6.53;1.77;;;15.70;99.90;;;;;;5113999;27;20217;-46
2021/08/26 08:17:35;;;;;;;4.20;1.30;;;15.70;99.90;;;;;;5109191;27;20208;-46
2021/08/26 08:20:02;;;;;;;4.23;1.70;;;15.60;99.90;;;;;;5117316;27;20299;-48
2021/08/26 08:22:28;;;;;;;3.83;1.40;;;15.70;99.90;;;;;;5097210;27;20224;-49
2021/08/26 08:24:55;;;;;;;7.13;1.60;;;15.80;99.90;;;;;;5113306;27;20196;-46
2021/08/26 08:27:22;;;;;;;7.43;1.33;;;15.70;99.90;;;;;;5123176;27;20199;-43
2021/08/26 08:29:49;;;;;;;4.43;1.67;;;15.80;99.90;;;;;;5119861;27;20204;-48
2021/08/26 08:32:16;;;;;;;5.10;1.70;;;15.80;99.90;;;;;;5111581;27;20220;-45
2021/08/26 08:34:44;;;;;;;5.70;1.57;;;15.80;99.90;;;;;;5113509;27;20200;-49
2021/08/26 08:37:10;;;;;;;7.50;1.47;;;15.80;99.90;;;;;;5100598;27;20215;-46
2021/08/26 08:39:37;;;;;;;6.97;1.10;;;15.80;99.90;;;;;;5120647;27;20203;-49
2021/08/26 08:42:04;;;;;;;6.00;1.30;;;15.70;99.90;;;;;;5116289;27;20236;-47
2021/08/26 08:44:31;;;;;;;5.87;1.40;;;15.80;99.90;;;;;;5126894;27;20275;-49
2021/08/26 08:46:59;;;;;;;4.13;1.77;;;15.80;99.90;;;;;;5119665;27;20204;-50
2021/08/26 08:49:26;;;;;;;5.80;1.50;;;15.80;99.90;;;;;;5115078;27;20253;-43
2021/08/26 08:51:56;;;;;;;7.23;1.47;;;15.90;99.90;;;;;;5118157;27;20584;-43
2021/08/26 08:54:24;;;;;;;2.60;1.07;;;15.90;99.90;;;;;;5118215;27;20509;-47
2021/08/26 08:56:50;;;;;;;2.13;0.80;;;16.10;99.90;;;;;;5113630;27;20217;-43
2021/08/26 08:59:17;;;;;;;3.67;1.43;;;16.10;99.90;;;;;;5107056;27;20228;-45
2021/08/26 09:01:50;;;;;;;5.97;1.40;;;16.00;99.90;;;;;;5120535;27;20212;-50
2021/08/26 09:04:18;;;;;;;3.27;1.63;;;16.10;99.90;;;;;;5106897;27;20205;-42
2021/08/26 09:06:44;;;;;;;9.90;1.60;;;16.10;99.90;;;;;;5108526;27;20188;-49
2021/08/26 09:09:13;;;;;;;2.90;1.30;;;16.10;99.90;;;;;;5093407;27;20215;-46
2021/08/26 09:11:49;;;;;;;4.23;0.83;;;16.20;99.90;;;;;;5118187;27;20220;-49
2021/08/26 09:14:16;;;;;;;3.17;0.90;;;16.30;99.90;;;;;;5117405;27;20189;-45
2021/08/26 09:16:46;;;;;;;3.10;1.33;;;16.40;99.90;;;;;;5107992;27;20232;-48
2021/08/26 09:19:19;;;;;;;4.93;1.17;;;16.40;99.90;;;;;;5126379;27;20188;-46
2021/08/26 09:21:46;;;;;;;2.50;1.10;;;16.40;99.90;;;;;;5124593;27;20213;-46
2021/08/26 09:24:14;;;;;;;4.13;1.17;;;16.40;99.90;;;;;;5104252;27;20277;-49
2021/08/26 09:26:41;;;;;;;6.53;0.97;;;16.50;99.90;;;;;;5119753;27;20823;-49
2021/08/26 09:29:10;;;;;;;6.27;1.13;;;16.50;99.90;;;;;;5115794;27;20201;-46
2021/08/26 09:31:39;;;;;;;3.13;0.80;;;16.60;99.90;;;;;;5116827;27;20225;-49
2021/08/26 09:34:10;;;;;;;2.03;1.07;;;16.70;99.90;;;;;;5106961;27;20231;-44
2021/08/26 09:36:38;;;;;;;4.00;1.03;;;16.70;99.90;;;;;;5118612;27;20705;-47
2021/08/26 09:39:08;;;;;;;1.93;0.63;;;16.90;99.90;;;;;;5096436;27;20207;-51
2021/08/26 09:41:37;;;;;;;1.73;0.80;;;16.90;99.90;;;;;;5118278;27;20899;-48
2021/08/26 09:44:04;;;;;;;4.40;1.30;;;17.00;99.90;;;;;;5100948;27;20271;-47
2021/08/26 09:46:31;;;;;;;4.23;1.10;;;16.90;99.90;;;;;;5112377;27;20201;-46
2021/08/26 09:49:02;;;;;;;1.37;0.83;;;16.90;99.90;;;;;;5106488;27;20208;-46
2021/08/26 09:51:28;;;;;;;2.50;0.83;;;16.70;99.90;;;;;;5125817;27;20562;-45
2021/08/26 09:53:55;;;;;;;3.17;1.13;;;16.70;99.90;;;;;;5108244;27;20230;-44
2021/08/26 09:56:22;;;;;;;3.27;1.00;;;16.60;99.90;;;;;;5121683;27;20215;-44
2021/08/26 09:58:53;;;;;;;5.27;0.80;;;16.60;99.90;;;;;;5111578;27;20558;-45
2021/08/26 10:01:21;;;;;;;1.73;0.70;;;16.60;99.90;;;;;;5126697;27;20212;-49
2021/08/26 10:03:49;;;;;;;4.50;0.90;;;16.70;99.90;;;;;;5120578;27;20189;-46
2021/08/26 10:06:17;;;;;;;6.00;1.30;;;17.00;99.90;;;;;;5114700;27;20256;-49
2021/08/26 10:08:47;;;;;;;5.20;0.40;;;17.00;99.90;;;;;;5107469;27;20197;-43
2021/08/26 10:11:16;;;;;;;4.00;0.70;;;16.90;99.90;;;;;;5126619;27;20247;-47
2021/08/26 10:13:43;;;;;;;6.70;1.10;;;16.80;99.90;;;;;;5125520;27;20192;-47
2021/08/26 10:16:11;;;;;;;3.43;0.63;;;16.70;99.90;;;;;;5114071;27;20213;-46
2021/08/26 10:18:38;;;;;;;3.40;0.60;;;16.60;99.90;;;;;;5124050;27;20193;-44
2021/08/26 10:21:07;;;;;;;3.77;1.13;;;16.60;99.90;;;;;;5118539;27;20212;-48
2021/08/26 10:23:37;;;;;;;4.77;0.70;;;16.70;99.90;;;;;;5121923;27;20283;-47
2021/08/26 10:26:07;;;;;;;3.00;0.70;;;16.80;99.90;;;;;;5099100;27;20962;-48
2021/08/26 10:28:36;;;;;;;2.60;0.70;;;17.00;99.90;;;;;;5118720;27;20192;-48
2021/08/26 10:31:26;;;;;;;3.50;0.50;;;17.10;99.90;;;;;;5116120;27;20209;-48
2021/08/26 10:34:08;;;;;;;2.30;0.57;;;17.20;99.90;;;;;;5120356;28;20193;-44
2021/08/26 10:36:47;;;;;;;2.97;0.40;;;17.30;99.90;;;;;;5113468;27;20723;-49
2021/08/26 10:39:27;;;;;;;2.07;0.40;;;17.30;99.90;;;;;;5112808;28;20896;-45
2021/08/26 10:41:55;;;;;;;3.03;0.60;;;17.30;99.90;;;;;;5104273;27;20240;-45
2021/08/26 10:44:21;;;;;;;6.30;0.67;;;17.30;99.90;;;;;;5126150;27;20193;-52
2021/08/26 10:46:55;;;;;;;2.73;0.40;;;17.30;99.90;;;;;;5115145;27;20212;-44
2021/08/26 10:49:23;;;;;;;1.70;0.40;;;17.20;99.90;;;;;;5120507;27;20278;-48
2021/08/26 10:51:53;;;;;;;0.57;0.40;;;17.20;99.90;;;;;;5120456;27;20227;-50
2021/08/26 10:54:26;;;;;;;2.43;0.60;;;17.20;99.90;;;;;;5136863;27;20199;-48
2021/08/26 10:56:53;;;;;;;1.47;0.20;;;17.10;99.90;;;;;;5113255;27;20212;-47
2021/08/26 10:59:28;;;;;;;2.20;0.80;;;17.10;99.90;;;;;;5120578;27;20205;-49
2021/08/26 11:01:56;;;;;;;3.13;0.40;;;17.10;99.90;;;;;;5104030;27;20219;-48
2021/08/26 11:04:27;;;;;;;4.27;0.30;;;17.20;99.90;;;;;;5113736;27;20205;-45
2021/08/26 11:06:55;;;;;;;1.43;0.43;;;17.40;99.90;;;;;;5119446;27;20201;-47
2021/08/26 11:09:43;;;;;;;0.87;0.27;;;17.40;99.90;;;;;;5121972;27;20574;-47
2021/08/26 11:12:25;;;;;;;3.13;0.40;;;17.30;99.90;;;;;;5118806;27;20212;-49
2021/08/26 11:14:57;;;;;;;3.30;0.30;;;17.40;99.90;;;;;;5112159;27;20338;-48
2021/08/26 11:17:28;;;;;;;2.00;0.40;;;17.40;99.90;;;;;;5126736;27;20216;-45
2021/08/26 11:19:55;;;;;;;2.10;0.43;;;17.30;99.90;;;;;;5120054;27;20185;-49
2021/08/26 11:22:22;;;;;;;2.80;0.60;;;17.20;99.90;;;;;;5117877;27;20232;-44
2021/08/26 11:24:54;;;;;;;2.00;0.50;;;17.10;99.90;;;;;;5115233;27;20196;-46
2021/08/26 11:27:24;;;;;;;2.70;0.50;;;17.10;99.90;;;;;;5123938;27;20195;-46
2021/08/26 11:29:51;;;;;;;2.20;0.93;;;17.00;99.90;;;;;;5108925;27;20211;-48
2021/08/26 11:32:20;;;;;;;3.33;0.60;;;16.90;99.90;;;;;;5113550;27;20304;-43
2021/08/26 11:34:49;;;;;;;1.60;0.60;;;16.90;99.90;;;;;;5131017;27;20746;-49
2021/08/26 11:37:18;;;;;;;2.97;0.40;;;16.80;99.90;;;;;;5118868;27;20223;-48
2021/08/26 11:39:47;;;;;;;2.60;0.40;;;16.80;99.90;;;;;;5118519;27;20201;-46
2021/08/26 11:42:24;;;;;;;4.03;0.57;;;16.70;99.90;;;;;;5124549;27;20232;-46
2021/08/26 11:45:09;;;;;;;5.43;0.57;;;16.70;99.90;;;;;;5094731;27;20211;-46
2021/08/26 11:47:37;;;;;;;2.53;0.40;;;16.70;99.90;;;;;;5123855;27;20207;-45
2021/08/26 11:50:14;;;;;;;2.00;0.40;;;16.70;99.90;;;;;;5126521;27;20205;-45
2021/08/26 11:52:44;;;;;;;5.07;0.87;;;16.70;99.90;;;;;;5104610;27;20310;-48
2021/08/26 11:55:11;;;;;;;4.30;0.53;;;16.60;99.90;;;;;;5115650;27;20562;-47
2021/08/26 11:57:38;;;;;;;5.40;0.40;;;16.60;99.90;;;;;;5117665;27;20205;-46
2021/08/26 12:00:10;;;;;;;4.43;0.67;;;16.70;99.90;;;;;;5117249;27;20275;-46
2021/08/26 12:02:40;;;;;;;3.33;0.30;;;16.70;99.90;;;;;;5100333;27;20920;-46
2021/08/26 12:05:14;;;;;;;2.10;0.50;;;16.70;99.90;;;;;;5111612;27;20222;-48
2021/08/26 12:07:43;;;;;;;0.80;0.50;;;16.70;99.90;;;;;;5112317;27;20202;-45
2021/08/26 12:10:16;;;;;;;0.73;0.63;;;16.60;99.90;;;;;;5120709;27;20201;-47
2021/08/26 12:12:52;;;;;;;1.97;0.60;;;16.70;99.90;;;;;;5114273;27;20327;-47
2021/08/26 12:15:24;;;;;;;5.00;0.90;;;16.70;99.90;;;;;;5136244;27;20196;-44
2021/08/26 12:17:51;;;;;;;1.83;0.30;;;16.70;99.90;;;;;;5105516;27;20212;-45
2021/08/26 12:20:20;;;;;;;0.50;0.20;;;16.80;99.90;;;;;;5122948;27;20275;-43
2021/08/26 12:22:49;;;;;;;3.63;0.80;;;16.80;99.90;;;;;;5112166;27;20538;-47
2021/08/26 12:25:21;;;;;;;3.27;0.50;;;16.80;99.90;;;;;;5124716;27;20200;-48
2021/08/26 12:27:50;;;;;;;1.47;0.60;;;16.90;99.90;;;;;;5118753;27;20181;-45
2021/08/26 12:30:27;;;;;;;1.17;0.50;;;16.90;99.90;;;;;;5126507;27;20203;-42
2021/08/26 12:33:04;;;;;;;3.40;0.50;;;17.00;99.90;;;;;;5103673;27;20297;-48
2021/08/26 12:35:40;;;;;;;1.93;0.43;;;17.00;99.90;;;;;;5120052;27;20227;-43
2021/08/26 12:38:07;;;;;;;0.77;0.40;;;17.00;99.90;;;;;;5119594;27;20707;-49
2021/08/26 12:40:52;;;;;;;3.87;0.60;;;17.00;99.90;;;;;;5123341;27;20564;-45
2021/08/26 12:43:20;;;;;;;1.43;0.40;;;17.00;99.90;;;;;;5117890;27;20197;-43
2021/08/26 12:45:46;;;;;;;1.17;0.40;;;17.00;99.90;;;;;;5113288;27;20316;-50
2021/08/26 12:48:24;;;;;;;3.50;0.40;;;17.00;99.90;;;;;;5110231;27;20208;-45